createdAt,value
2023-08-17T00:00:23.741Z,72.38
2023-08-17T00:10:26.907Z,73.04
2023-08-17T00:20:29.890Z,73.07
2023-08-17T00:30:36.502Z,73.41
2023-08-17T00:40:39.706Z,75.02
2023-08-17T00:50:44.526Z,73.60
2023-08-17T01:00:48.061Z,72.20
2023-08-17T01:10:58.792Z,72.04
2023-08-17T01:21:06.428Z,77.23
2023-08-17T01:31:12.285Z,82.52
2023-08-17T01:41:16.658Z,82.80
2023-08-17T01:51:20.563Z,83.12
2023-08-17T02:01:23.841Z,85.40
2023-08-17T02:11:27.544Z,86.88
2023-08-17T02:21:30.526Z,87.74
2023-08-17T02:31:33.574Z,88.45
2023-08-17T02:41:36.572Z,88.14
2023-08-17T02:51:39.547Z,87.76
2023-08-17T03:01:42.592Z,87.97
2023-08-17T03:11:45.684Z,87.83
2023-08-17T03:21:48.682Z,87.51
2023-08-17T03:31:51.680Z,86.14
2023-08-17T03:41:54.669Z,87.24
2023-08-17T03:51:57.789Z,87.62
2023-08-17T04:02:01.060Z,88.29
2023-08-17T04:12:05.475Z,88.71
2023-08-17T04:22:10.722Z,87.83
2023-08-17T04:32:16.430Z,86.78
2023-08-17T04:42:20.451Z,87.33
2023-08-17T04:52:23.706Z,87.66
2023-08-17T05:02:27.445Z,88.40
2023-08-17T05:12:31.260Z,88.20
2023-08-17T05:22:34.381Z,88.11
2023-08-17T05:32:37.442Z,88.43
2023-08-17T05:42:40.639Z,87.92
2023-08-17T05:52:43.704Z,87.85
2023-08-17T06:02:50.463Z,88.14
2023-08-17T06:12:52.906Z,87.22
2023-08-17T06:22:55.882Z,86.39
2023-08-17T06:32:59.462Z,83.78
2023-08-17T06:43:02.458Z,83.04
2023-08-17T06:53:06.301Z,83.70
2023-08-17T07:03:09.661Z,83.22
2023-08-17T07:13:12.659Z,83.70
2023-08-17T07:23:15.783Z,83.09
2023-08-17T07:33:18.840Z,81.49
2023-08-17T07:43:21.857Z,81.22
2023-08-17T07:53:24.929Z,79.94
2023-08-17T08:03:27.999Z,77.47
2023-08-17T08:13:31.052Z,77.59
2023-08-17T08:23:34.058Z,73.95
2023-08-17T08:33:37.214Z,72.42
2023-08-17T08:43:40.444Z,72.16
2023-08-17T08:53:46.529Z,70.95
2023-08-17T09:03:50.541Z,67.66
2023-08-17T09:13:55.101Z,65.86
2023-08-17T09:24:00.406Z,64.38
2023-08-17T09:34:07.512Z,64.07
2023-08-17T09:44:12.005Z,63.94
2023-08-17T09:54:23.042Z,63.33
2023-08-17T10:04:28.692Z,61.82
2023-08-17T10:14:36.245Z,60.22
2023-08-17T10:24:40.318Z,57.55
2023-08-17T10:34:43.999Z,55.22
2023-08-17T10:44:48.211Z,54.68
2023-08-17T10:54:51.345Z,50.09
2023-08-17T11:04:54.353Z,47.92
2023-08-17T11:15:00.339Z,47.23
2023-08-17T11:25:07.487Z,48.81
2023-08-17T11:35:11.595Z,44.34
2023-08-17T11:45:15.660Z,44.06
2023-08-17T11:55:20.956Z,43.56
2023-08-17T12:05:27.456Z,43.36
2023-08-17T12:15:33.115Z,42.07
2023-08-17T12:25:36.098Z,42.12
2023-08-17T12:35:39.815Z,42.57
2023-08-17T12:45:42.862Z,40.76
2023-08-17T12:55:45.945Z,41.34
2023-08-17T13:05:48.922Z,40.72
2023-08-17T13:15:52.853Z,40.33
2023-08-17T13:25:55.831Z,38.41
2023-08-17T13:35:58.958Z,37.79
2023-08-17T13:46:02.480Z,38.26
2023-08-17T13:56:05.940Z,36.76
2023-08-17T14:06:08.970Z,35.73
2023-08-17T14:16:12.279Z,35.18
2023-08-17T14:26:15.747Z,34.16
2023-08-17T14:36:20.489Z,34.40
2023-08-17T14:46:24.087Z,33.00
2023-08-17T14:56:27.125Z,33.15
2023-08-17T15:06:34.261Z,32.15
2023-08-17T15:16:38.119Z,37.04
2023-08-17T15:26:41.457Z,42.76
2023-08-17T15:36:44.464Z,48.76
2023-08-17T15:46:47.424Z,52.87
2023-08-17T15:56:51.059Z,56.47
2023-08-17T16:06:54.431Z,56.74
2023-08-17T16:16:57.928Z,59.60
2023-08-17T16:27:01.653Z,60.56
2023-08-17T16:37:04.880Z,61.93
2023-08-17T16:47:07.900Z,63.01
2023-08-17T16:57:10.933Z,62.75
2023-08-17T17:07:14.627Z,64.45
2023-08-17T17:17:17.698Z,65.23
2023-08-17T17:27:20.676Z,65.67
2023-08-17T17:37:23.726Z,65.91
2023-08-17T17:47:27.618Z,66.76
2023-08-17T17:57:31.175Z,67.01
2023-08-17T18:07:34.398Z,67.79
2023-08-17T18:17:37.433Z,68.98
2023-08-17T18:27:42.135Z,69.66
2023-08-17T18:37:46.237Z,70.93
2023-08-17T18:47:49.184Z,71.59
2023-08-17T18:57:54.150Z,72.10
2023-08-17T19:07:58.016Z,72.13
2023-08-17T19:18:01.046Z,71.75
2023-08-17T19:28:04.527Z,73.46
2023-08-17T19:38:07.513Z,73.62
2023-08-17T19:48:10.583Z,73.88
2023-08-17T19:58:13.648Z,74.27
2023-08-17T20:08:16.676Z,73.99
2023-08-17T20:18:19.720Z,74.14
2023-08-17T20:28:22.742Z,74.65
2023-08-17T20:38:25.685Z,74.30
2023-08-17T20:48:28.710Z,75.60
2023-08-17T20:58:31.703Z,75.54
2023-08-17T21:08:35.752Z,75.32
2023-08-17T21:18:39.818Z,75.04
2023-08-17T21:28:42.857Z,75.10
2023-08-17T21:38:47.213Z,76.10
2023-08-17T21:48:50.475Z,78.34
2023-08-17T21:58:53.530Z,78.56
2023-08-17T22:08:56.477Z,79.39
2023-08-17T22:18:59.481Z,80.34
2023-08-17T22:29:03.826Z,81.17
2023-08-17T22:39:10.753Z,81.57
2023-08-17T22:49:13.880Z,81.83
2023-08-17T22:59:17.999Z,81.31
2023-08-17T23:09:21.617Z,81.52
2023-08-17T23:19:24.767Z,82.18
2023-08-17T23:29:27.863Z,81.95
2023-08-17T23:39:30.975Z,81.95
2023-08-17T23:49:34.494Z,81.37
2023-08-17T23:59:37.495Z,81.75
